INFORMAÇÕES METEOROLÓGICAS
METAR FOR SBST
ADDS - METARS form results

(2029 UTC 09 July 2020)
Data provider http://aviationweather.gov/metar/data/
 
METAR text: SBST 092000Z 16003KT 9999 OVC030 20/16 Q1020
Conditions at: SBST (SANTOS (BRAZ-AFB, BR) observed 2000 UTC 09 July 2020
Temperature: 20.0°C (68°F)
Dewpoint: 16.0°C (61°F) [RH = 78%]
Pressure (altimeter): 30.12 inches Hg (1020.0 mb)
Winds: from the SSE (160 degrees) at 3 MPH (3 knots; 1.5 m/s)
Visibility: 6 or more miles (10+ km)
Ceiling: 3000 feet AGL
Clouds: overcast cloud deck at 3000 feet AGL
Weather: no significant weather observed at this time

 MAPA DO AEROPORTO

 INFORMAÇÕES DA PISTA
Pista 17 Tamanho da pista 4560 ft Largura da pista 148 ft
Elevação da pista 0 ft Ranhura da pista 0 ft Proa da pista 0
Pista 35 Tamanho da pista 4560 ft Largura da pista 148 ft
Elevação da pista 0 ft Ranhura da pista 0 ft Proa da pista 0

 FREQUÊNCIAS DO AEROPORTO
Tipo APP Nome SAO PAULO Frequência 119.8 MHZ
Tipo TWR Nome TWR Frequência 118.3 MHZ

 AUXÍLIOS DE NAVEGAÇÃO PRÓXIMOS AO AEROPORTO
Tipo NDB Nome Vicente Frequência 360 KHZ
Tipo NDB Nome Santos Frequência 375 KHZ



Powered by Mercosul Lnhas Aereas